createdAt,value
2019-05-25T00:01:14.806Z,12.10
2019-05-25T00:04:19.187Z,12.20
2019-05-25T00:07:23.594Z,12.20
2019-05-25T00:10:27.975Z,12.20
2019-05-25T00:13:32.363Z,12.20
2019-05-25T00:16:36.711Z,12.10
2019-05-25T00:19:41.031Z,12.10
2019-05-25T00:22:45.391Z,12.10
2019-05-25T00:25:51.768Z,12.10
2019-05-25T00:28:56.081Z,12.10
2019-05-25T00:32:00.469Z,12.10
2019-05-25T00:35:05.158Z,12.00
2019-05-25T00:38:09.559Z,12.00
2019-05-25T00:41:13.921Z,12.00
2019-05-25T00:44:18.244Z,12.00
2019-05-25T00:47:22.592Z,11.90
2019-05-25T00:50:26.984Z,11.90
2019-05-25T00:53:31.288Z,11.90
2019-05-25T00:56:35.693Z,11.80
2019-05-25T00:59:40.042Z,11.80
2019-05-25T01:02:44.460Z,11.70
2019-05-25T01:05:49.015Z,11.80
2019-05-25T01:08:53.416Z,11.70
2019-05-25T01:11:57.797Z,11.70
2019-05-25T01:15:02.359Z,11.70
2019-05-25T01:18:06.733Z,11.70
2019-05-25T01:21:12.269Z,11.70
2019-05-25T01:24:16.658Z,11.60
2019-05-25T01:27:21.086Z,11.60
2019-05-25T01:30:25.703Z,11.60
2019-05-25T01:33:30.018Z,11.60
2019-05-25T01:36:34.307Z,11.60
2019-05-25T01:39:38.700Z,11.60
2019-05-25T01:42:42.965Z,11.50
2019-05-25T01:45:47.296Z,11.50
2019-05-25T01:48:51.749Z,11.50
2019-05-25T01:51:56.144Z,11.50
2019-05-25T01:55:00.643Z,11.50
2019-05-25T01:58:05.180Z,11.50
2019-05-25T02:01:09.520Z,11.50
2019-05-25T02:04:13.847Z,11.50
2019-05-25T02:07:18.241Z,11.40
2019-05-25T02:10:22.860Z,11.40
2019-05-25T02:13:27.124Z,11.40
2019-05-25T02:16:31.521Z,11.40
2019-05-25T02:19:35.874Z,11.40
2019-05-25T02:22:40.183Z,11.40
2019-05-25T02:25:44.500Z,11.40
2019-05-25T02:28:48.879Z,11.40
2019-05-25T02:31:53.088Z,11.40
2019-05-25T02:34:57.526Z,11.40
2019-05-25T02:38:01.868Z,11.40
2019-05-25T02:41:06.220Z,11.40
2019-05-25T02:44:10.675Z,11.40
2019-05-25T02:47:15.019Z,11.40
2019-05-25T02:50:19.410Z,11.40
2019-05-25T02:53:23.727Z,11.40
2019-05-25T02:56:28.106Z,11.30
2019-05-25T02:59:32.507Z,11.40
2019-05-25T03:02:36.860Z,11.40
2019-05-25T03:05:41.582Z,11.40
2019-05-25T03:08:46.763Z,11.30
2019-05-25T03:11:51.654Z,11.40
2019-05-25T03:14:56.099Z,11.30
2019-05-25T03:18:00.398Z,11.30
2019-05-25T03:21:04.778Z,11.30
2019-05-25T03:24:09.100Z,11.30
2019-05-25T03:27:13.452Z,11.30
2019-05-25T03:30:24.365Z,11.30
2019-05-25T03:33:28.805Z,11.30
2019-05-25T03:36:33.252Z,11.30
2019-05-25T03:39:37.625Z,11.30
2019-05-25T03:42:42.069Z,11.30
2019-05-25T03:45:46.416Z,11.30
2019-05-25T03:48:50.762Z,11.30
2019-05-25T03:51:55.124Z,11.20
2019-05-25T03:54:59.513Z,11.20
2019-05-25T03:58:04.147Z,11.20
2019-05-25T04:01:08.694Z,11.20
2019-05-25T04:04:13.063Z,11.20
2019-05-25T04:07:17.635Z,11.20
2019-05-25T04:10:22.021Z,11.20
2019-05-25T04:13:26.435Z,11.20
2019-05-25T04:16:30.882Z,11.20
2019-05-25T04:19:35.288Z,11.20
2019-05-25T04:22:39.667Z,11.20
2019-05-25T04:25:44.165Z,11.20
2019-05-25T04:28:48.546Z,11.20
2019-05-25T04:31:52.979Z,11.20
2019-05-25T04:34:57.361Z,11.20
2019-05-25T04:38:01.675Z,11.20
2019-05-25T04:41:06.034Z,11.20
2019-05-25T04:44:10.508Z,11.20
2019-05-25T04:47:26.479Z,11.20
2019-05-25T04:50:21.500Z,11.30
2019-05-25T04:53:25.931Z,11.30
2019-05-25T04:56:39.614Z,11.30
2019-05-25T04:59:36.292Z,11.30
2019-05-25T05:02:41.045Z,11.30
2019-05-25T05:05:45.425Z,11.30
2019-05-25T05:08:49.820Z,11.30
2019-05-25T05:11:54.209Z,11.40
2019-05-25T05:14:58.550Z,11.40
2019-05-25T05:18:05.847Z,11.40
2019-05-25T05:21:10.268Z,11.50
2019-05-25T05:24:14.606Z,11.50
2019-05-25T05:27:19.014Z,11.50
2019-05-25T05:30:34.011Z,11.50
2019-05-25T05:33:38.506Z,11.70
2019-05-25T05:36:43.407Z,11.70
2019-05-25T05:39:48.555Z,11.70
2019-05-25T05:42:54.516Z,11.80
2019-05-25T05:46:00.352Z,11.90
2019-05-25T05:49:05.019Z,11.90
2019-05-25T05:52:11.002Z,11.90
2019-05-25T05:55:18.200Z,11.90
2019-05-25T05:58:23.578Z,12.00
2019-05-25T06:01:27.952Z,12.10
2019-05-25T06:04:32.368Z,12.10
2019-05-25T06:07:37.352Z,12.20
2019-05-25T06:10:44.027Z,12.30
2019-05-25T06:13:48.376Z,12.40
2019-05-25T06:16:53.064Z,12.40
2019-05-25T06:19:58.956Z,12.50
2019-05-25T06:23:06.923Z,12.60
2019-05-25T06:26:09.340Z,12.60
2019-05-25T06:29:15.704Z,12.70
2019-05-25T06:32:20.087Z,12.80
2019-05-25T06:35:24.632Z,12.80
2019-05-25T06:38:29.024Z,12.90
2019-05-25T06:41:33.516Z,13.00
2019-05-25T06:44:37.915Z,13.10
2019-05-25T06:47:42.409Z,13.20
2019-05-25T06:50:46.833Z,13.40
2019-05-25T06:53:51.933Z,13.50
2019-05-25T06:56:56.344Z,13.60
2019-05-25T07:00:00.822Z,13.60
2019-05-25T07:03:05.282Z,13.70
2019-05-25T07:06:09.755Z,13.80
2019-05-25T07:09:14.652Z,13.90
2019-05-25T07:12:19.105Z,14.00
2019-05-25T07:15:25.032Z,14.00
2019-05-25T07:18:29.397Z,14.20
2019-05-25T07:21:33.876Z,14.30
2019-05-25T07:24:38.600Z,14.40
2019-05-25T07:27:58.113Z,14.50
2019-05-25T07:30:49.716Z,14.60
2019-05-25T07:33:54.265Z,14.70
2019-05-25T07:36:58.939Z,14.80
2019-05-25T07:40:03.341Z,15.00
2019-05-25T07:43:07.744Z,15.10
2019-05-25T07:46:12.161Z,15.20
2019-05-25T07:49:16.675Z,15.30
2019-05-25T07:52:21.036Z,15.40
2019-05-25T07:55:27.422Z,15.50
2019-05-25T07:58:32.172Z,15.70
2019-05-25T08:01:36.623Z,16.00
2019-05-25T08:04:40.996Z,16.30
2019-05-25T08:07:45.517Z,16.70
2019-05-25T08:10:49.960Z,16.90
2019-05-25T08:13:55.444Z,17.20
2019-05-25T08:17:01.428Z,17.30
2019-05-25T08:20:06.483Z,17.50
2019-05-25T08:23:10.900Z,17.70
2019-05-25T08:26:15.438Z,17.80
2019-05-25T08:29:19.847Z,17.90
2019-05-25T08:32:24.590Z,18.00
2019-05-25T08:35:29.044Z,18.10
2019-05-25T08:38:33.537Z,18.20
2019-05-25T08:41:38.061Z,18.30
2019-05-25T08:44:42.994Z,18.50
2019-05-25T08:47:47.493Z,18.50
2019-05-25T08:50:51.985Z,18.70
2019-05-25T08:53:56.521Z,18.80
2019-05-25T08:57:01.807Z,18.80
2019-05-25T09:00:08.233Z,18.90
2019-05-25T09:03:12.716Z,19.10
2019-05-25T09:06:18.639Z,19.20
2019-05-25T09:09:23.229Z,19.30
2019-05-25T09:12:27.616Z,19.30
2019-05-25T09:15:32.281Z,19.50
2019-05-25T09:18:36.707Z,19.50
2019-05-25T09:21:41.231Z,19.70
2019-05-25T09:24:47.720Z,19.80
2019-05-25T09:27:52.521Z,19.90
2019-05-25T09:30:57.178Z,19.90
2019-05-25T09:34:01.640Z,19.90
2019-05-25T09:37:06.037Z,19.90
2019-05-25T09:40:11.672Z,20.00
2019-05-25T09:43:16.131Z,20.20
2019-05-25T09:46:21.102Z,20.30
2019-05-25T09:49:26.632Z,20.40
2019-05-25T09:52:31.186Z,20.70
2019-05-25T09:55:37.576Z,20.70
2019-05-25T09:58:42.150Z,20.90
2019-05-25T10:01:46.896Z,21.00
2019-05-25T10:04:51.393Z,21.10
2019-05-25T10:07:55.966Z,21.20
2019-05-25T10:11:00.690Z,21.40
2019-05-25T10:14:06.639Z,21.40
2019-05-25T10:17:11.331Z,21.40
2019-05-25T10:20:16.361Z,21.70
2019-05-25T10:23:20.855Z,22.00
2019-05-25T10:26:25.332Z,22.00
2019-05-25T10:29:37.369Z,21.90
2019-05-25T10:32:35.870Z,21.90
2019-05-25T10:35:40.328Z,21.90
2019-05-25T10:45:30.263Z,22.40
2019-05-25T10:48:37.509Z,22.50
2019-05-25T10:51:41.976Z,22.30
2019-05-25T10:54:46.420Z,22.10
2019-05-25T10:57:51.047Z,22.30
2019-05-25T11:00:57.271Z,22.40
2019-05-25T11:04:02.296Z,22.60
2019-05-25T11:07:06.995Z,23.00
2019-05-25T11:10:11.950Z,23.30
2019-05-25T11:13:18.308Z,23.50
2019-05-25T11:16:22.968Z,23.40
2019-05-25T11:19:31.068Z,23.00
2019-05-25T11:22:36.641Z,23.00
2019-05-25T11:25:41.006Z,22.50
2019-05-25T11:28:45.523Z,22.50
2019-05-25T11:31:56.473Z,23.00
2019-05-25T11:34:56.221Z,23.20
2019-05-25T11:38:00.697Z,23.40
2019-05-25T11:41:05.180Z,23.50
2019-05-25T11:44:09.570Z,23.60
2019-05-25T11:47:14.054Z,23.80
2019-05-25T11:50:21.051Z,23.40
2019-05-25T11:53:25.538Z,23.60
2019-05-25T11:56:30.046Z,23.90
2019-05-25T11:59:34.468Z,23.90
2019-05-25T12:02:38.765Z,23.90
2019-05-25T12:05:44.833Z,24.00
2019-05-25T12:08:49.311Z,24.20
2019-05-25T12:11:53.735Z,24.50
2019-05-25T12:14:58.196Z,24.70
2019-05-25T12:18:05.195Z,25.00
2019-05-25T12:21:09.592Z,25.10
2019-05-25T12:24:14.033Z,25.30
2019-05-25T12:27:18.412Z,25.50
2019-05-25T12:30:39.384Z,25.70
2019-05-25T12:33:30.071Z,25.90
2019-05-25T12:36:34.447Z,26.10
2019-05-25T12:39:38.773Z,26.20
2019-05-25T12:42:46.040Z,26.30
2019-05-25T12:45:50.523Z,26.40
2019-05-25T12:48:54.937Z,26.50
2019-05-25T12:51:59.303Z,26.60
2019-05-25T12:55:04.075Z,26.60
2019-05-25T12:58:08.464Z,26.80
2019-05-25T13:01:12.882Z,26.90
2019-05-25T13:04:17.190Z,27.00
2019-05-25T13:07:22.984Z,27.10
2019-05-25T13:10:27.807Z,27.10
2019-05-25T13:13:32.257Z,27.20
2019-05-25T13:16:36.606Z,27.20
2019-05-25T13:19:41.058Z,27.30
2019-05-25T13:22:45.536Z,27.30
2019-05-25T13:25:50.117Z,27.40
2019-05-25T13:28:54.535Z,27.50
2019-05-25T13:31:59.001Z,27.50
2019-05-25T13:35:03.491Z,27.40
2019-05-25T13:38:07.954Z,27.30
2019-05-25T13:41:12.368Z,27.20
2019-05-25T13:44:17.145Z,27.10
2019-05-25T13:47:21.660Z,27.10
2019-05-25T13:50:25.942Z,27.10
2019-05-25T13:53:33.021Z,27.10
2019-05-25T13:56:36.491Z,27.10
2019-05-25T13:59:40.899Z,27.00
2019-05-25T14:02:45.283Z,27.00
2019-05-25T14:05:49.709Z,26.90
2019-05-25T14:08:54.116Z,26.80
2019-05-25T14:11:58.535Z,26.80
2019-05-25T14:15:03.245Z,26.70
2019-05-25T14:18:07.722Z,26.50
2019-05-25T14:21:12.346Z,26.40
2019-05-25T14:24:17.821Z,26.20
2019-05-25T14:27:22.329Z,26.20
2019-05-25T14:30:26.711Z,26.10
2019-05-25T14:33:31.069Z,25.80
2019-05-25T14:36:35.553Z,25.60
2019-05-25T14:39:41.110Z,25.30
2019-05-25T14:42:45.588Z,24.90
2019-05-25T14:45:53.197Z,24.80
2019-05-25T14:48:56.120Z,24.60
2019-05-25T14:52:00.543Z,24.40
2019-05-25T14:55:05.576Z,24.20
2019-05-25T14:58:12.866Z,23.90
2019-05-25T15:01:16.018Z,23.90
2019-05-25T15:04:20.563Z,23.80
2019-05-25T15:07:28.148Z,23.60
2019-05-25T15:10:32.807Z,23.60
2019-05-25T15:13:37.312Z,23.40
2019-05-25T15:16:42.047Z,23.40
2019-05-25T15:19:54.328Z,23.20
2019-05-25T15:22:59.189Z,23.10
2019-05-25T15:26:05.953Z,23.00
2019-05-25T15:29:11.543Z,23.00
2019-05-25T15:32:20.406Z,22.90
2019-05-25T15:35:22.526Z,22.80
2019-05-25T15:38:27.286Z,22.80
2019-05-25T15:41:31.866Z,22.70
2019-05-25T15:44:36.344Z,22.70
2019-05-25T15:47:41.377Z,22.70
2019-05-25T15:50:46.023Z,22.70
2019-05-25T15:53:50.603Z,22.70
2019-05-25T15:56:55.193Z,22.60
2019-05-25T16:00:03.237Z,22.50
2019-05-25T16:03:07.781Z,22.50
2019-05-25T16:06:12.358Z,22.40
2019-05-25T16:09:17.023Z,22.40
2019-05-25T16:12:25.126Z,22.40
2019-05-25T16:15:29.721Z,22.30
2019-05-25T16:18:34.468Z,22.30
2019-05-25T16:21:39.349Z,22.30
2019-05-25T16:24:44.289Z,22.10
2019-05-25T16:27:48.846Z,22.00
2019-05-25T16:30:53.271Z,21.90
2019-05-25T16:37:08.763Z,21.80
2019-05-25T16:40:13.503Z,21.70
2019-05-25T16:43:17.829Z,21.70
2019-05-25T16:46:24.007Z,21.60
2019-05-25T16:49:28.712Z,21.50
2019-05-25T16:52:33.123Z,21.40
2019-05-25T16:55:37.547Z,21.30
2019-05-25T16:58:41.928Z,21.30
2019-05-25T17:01:48.483Z,21.20
2019-05-25T17:04:52.546Z,21.10
2019-05-25T17:07:57.203Z,21.00
2019-05-25T17:11:02.559Z,21.00
2019-05-25T17:14:07.127Z,20.90
2019-05-25T17:17:13.123Z,20.80
2019-05-25T17:20:17.881Z,20.70
2019-05-25T17:23:24.957Z,20.60
2019-05-25T17:26:29.569Z,20.50
2019-05-25T17:29:35.857Z,20.40
2019-05-25T17:32:40.677Z,20.30
2019-05-25T17:35:45.340Z,20.20
2019-05-25T17:38:49.851Z,20.10
2019-05-25T17:41:54.325Z,20.10
2019-05-25T17:44:59.039Z,19.90
2019-05-25T17:48:03.680Z,19.80
2019-05-25T17:51:08.353Z,19.70
2019-05-25T17:54:12.799Z,19.50
2019-05-25T17:57:17.334Z,19.40
2019-05-25T18:00:40.814Z,19.30
2019-05-25T18:04:02.527Z,19.20
2019-05-25T18:06:51.453Z,19.00
2019-05-25T18:09:55.990Z,18.90
2019-05-25T18:13:00.589Z,18.80
2019-05-25T18:16:06.338Z,18.70
2019-05-25T18:19:13.104Z,18.60
2019-05-25T18:22:17.633Z,18.50
2019-05-25T18:25:22.077Z,18.40
2019-05-25T18:28:26.551Z,18.20
2019-05-25T18:31:31.008Z,18.10
2019-05-25T18:34:37.324Z,18.00
2019-05-25T18:37:41.738Z,17.90
2019-05-25T18:40:47.116Z,17.80
2019-05-25T18:43:51.501Z,17.70
2019-05-25T18:46:55.976Z,17.60
2019-05-25T18:50:00.408Z,17.50
2019-05-25T18:53:05.082Z,17.40
2019-05-25T18:56:09.940Z,17.30
2019-05-25T18:59:19.887Z,17.20
2019-05-25T19:02:24.453Z,17.20
2019-05-25T19:05:29.218Z,17.00
2019-05-25T19:08:33.738Z,17.00
2019-05-25T19:11:39.812Z,16.90
2019-05-25T19:14:44.321Z,16.80
2019-05-25T19:17:49.084Z,16.70
2019-05-25T19:20:53.569Z,16.60
2019-05-25T19:23:58.079Z,16.60
2019-05-25T19:27:02.681Z,16.50
2019-05-25T19:30:09.315Z,16.40
2019-05-25T19:33:13.744Z,16.30
2019-05-25T19:36:18.167Z,16.30
2019-05-25T19:39:25.128Z,16.20
2019-05-25T19:42:29.591Z,16.20
2019-05-25T19:45:34.214Z,16.10
2019-05-25T19:48:39.246Z,16.00
2019-05-25T19:51:46.781Z,15.90
2019-05-25T19:54:51.363Z,15.80
2019-05-25T19:57:55.794Z,15.80
2019-05-25T20:01:00.320Z,15.70
2019-05-25T20:04:04.894Z,15.60
2019-05-25T20:07:09.632Z,15.60
2019-05-25T20:10:14.565Z,15.50
2019-05-25T20:13:19.245Z,15.40
2019-05-25T20:16:25.290Z,15.30
2019-05-25T20:19:29.857Z,15.30
2019-05-25T20:22:34.775Z,15.20
2019-05-25T20:25:39.559Z,15.20
2019-05-25T20:28:50.533Z,15.10
2019-05-25T20:31:53.609Z,15.10
2019-05-25T20:34:59.817Z,15.00
2019-05-25T20:38:07.203Z,15.00
2019-05-25T20:41:11.653Z,14.90
2019-05-25T20:44:17.521Z,14.90
2019-05-25T20:47:21.972Z,14.80
2019-05-25T20:50:26.420Z,14.70
2019-05-25T20:53:30.888Z,14.70
2019-05-25T20:56:35.384Z,14.60
2019-05-25T20:59:40.420Z,14.60
2019-05-25T21:03:02.069Z,14.50
2019-05-25T21:05:52.259Z,14.50
2019-05-25T21:08:56.983Z,14.50
2019-05-25T21:12:01.536Z,14.40
2019-05-25T21:15:06.561Z,14.40
2019-05-25T21:18:11.328Z,14.30
2019-05-25T21:21:15.936Z,14.30
2019-05-25T21:24:20.638Z,14.20
2019-05-25T21:27:25.571Z,14.20
2019-05-25T21:30:35.286Z,14.10
2019-05-25T21:33:39.975Z,14.10
2019-05-25T21:36:44.931Z,14.10
2019-05-25T21:39:49.784Z,14.00
2019-05-25T21:42:54.686Z,14.00
2019-05-25T21:45:59.162Z,14.00
2019-05-25T21:49:03.617Z,13.90
2019-05-25T21:52:08.276Z,13.90
2019-05-25T21:55:13.700Z,13.90
2019-05-25T21:58:18.543Z,13.90
2019-05-25T22:01:23.637Z,13.80
2019-05-25T22:04:28.199Z,13.80
2019-05-25T22:07:32.659Z,13.70
2019-05-25T22:10:37.150Z,13.70
2019-05-25T22:13:42.127Z,13.50
2019-05-25T22:16:46.701Z,13.40
2019-05-25T22:19:51.099Z,13.20
2019-05-25T22:22:55.440Z,13.10
2019-05-25T22:26:00.004Z,13.10
2019-05-25T22:29:04.475Z,13.10
2019-05-25T22:32:08.880Z,13.00
2019-05-25T22:35:14.310Z,13.00
2019-05-25T22:38:18.840Z,12.90
2019-05-25T22:41:23.106Z,13.00
2019-05-25T22:44:27.743Z,12.90
2019-05-25T22:47:32.636Z,12.80
2019-05-25T22:50:57.247Z,12.80
2019-05-25T22:54:01.833Z,12.70
2019-05-25T22:57:07.933Z,12.70
2019-05-25T23:00:12.967Z,12.70
2019-05-25T23:03:17.429Z,12.60
2019-05-25T23:06:22.454Z,12.60
2019-05-25T23:09:29.396Z,12.60
2019-05-25T23:12:34.147Z,12.60
2019-05-25T23:15:39.504Z,12.50
2019-05-25T23:18:45.247Z,12.50
2019-05-25T23:21:49.814Z,12.40
2019-05-25T23:24:54.411Z,12.50
2019-05-25T23:27:58.983Z,12.40
2019-05-25T23:31:03.415Z,12.40
2019-05-25T23:34:07.880Z,12.50
2019-05-25T23:37:14.962Z,12.50
2019-05-25T23:40:19.085Z,12.40
2019-05-25T23:43:23.568Z,12.40
2019-05-25T23:46:27.935Z,12.40
2019-05-25T23:49:32.339Z,12.40
2019-05-25T23:52:36.730Z,12.40
2019-05-25T23:55:41.116Z,12.30
2019-05-25T23:58:46.745Z,12.10
